Time;durP1;ratioP1;P1;durP2;ratioP2;P2;SDS_P1;SDS_P2;PMS_P1;PMS_P2;Temp;Humidity;BMP_temperature;BMP_pressure;BME280_temperature;BME280_humidity;BME280_pressure;Samples;Min_cycle;Max_cycle;Signal;HPM_P1;HPM_P2
2022/03/28 00:02:05;;;;;;;9.77;4.03;;;;;;;6.82;67.20;101386.34;4996895;28;20084;-45
2022/03/28 00:04:32;;;;;;;8.30;4.00;;;;;;;6.78;66.01;101384.50;4995255;28;20046;-45
2022/03/28 00:06:59;;;;;;;7.72;3.75;;;;;;;6.76;66.54;101386.16;4998101;28;20100;-42
2022/03/28 00:09:26;;;;;;;7.57;3.85;;;;;;;6.73;66.41;101386.06;4997050;28;20050;-45
2022/03/28 00:11:52;;;;;;;8.77;4.53;;;;;;;6.69;66.32;101383.38;5001513;28;20512;-44
2022/03/28 00:14:19;;;;;;;10.43;4.28;;;;;;;6.66;67.02;101375.53;5005658;28;20705;-46
2022/03/28 00:16:46;;;;;;;5.80;2.22;;;;;;;6.63;66.85;101375.44;4999514;28;20663;-45
2022/03/28 00:19:12;;;;;;;7.53;4.00;;;;;;;6.60;66.25;101374.44;4997198;28;20049;-44
2022/03/28 00:21:39;;;;;;;9.38;3.95;;;;;;;6.56;66.67;101368.31;4999856;28;20093;-47
2022/03/28 00:24:06;;;;;;;8.48;3.35;;;;;;;6.53;67.42;101371.69;4997867;28;20425;-47
2022/03/28 00:26:33;;;;;;;7.95;2.83;;;;;;;6.51;67.02;101369.84;4998416;28;22100;-42
2022/03/28 00:29:00;;;;;;;8.20;4.20;;;;;;;6.46;66.57;101359.41;4998061;28;20779;-46
2022/03/28 00:31:44;;;;;;;10.23;4.70;;;;;;;6.42;66.94;101366.13;5005098;28;20049;-43
2022/03/28 00:34:11;;;;;;;6.88;3.40;;;;;;;6.42;66.55;101365.28;5006800;28;20367;-45
2022/03/28 00:36:37;;;;;;;6.88;4.28;;;;;;;6.38;67.04;101364.25;5009011;28;20115;-46
2022/03/28 00:39:04;;;;;;;8.75;3.92;;;;;;;6.37;66.81;101362.53;5008477;28;20046;-46
2022/03/28 00:41:30;;;;;;;7.50;4.43;;;;;;;6.35;66.12;101364.16;5007771;28;20829;-47
2022/03/28 00:43:59;;;;;;;7.28;4.63;;;;;;;6.31;67.44;101367.44;5008735;28;20049;-45
2022/03/28 00:46:27;;;;;;;7.80;4.68;;;;;;;6.28;66.53;101355.34;5005307;28;20053;-41
2022/03/28 00:48:53;;;;;;;8.82;4.40;;;;;;;6.26;67.39;101348.41;5007483;28;20121;-42
2022/03/28 00:51:22;;;;;;;10.85;4.63;;;;;;;6.23;66.88;101348.28;5002625;28;20177;-44
2022/03/28 00:53:50;;;;;;;7.95;4.43;;;;;;;6.20;66.51;101343.00;5008509;28;20096;-46
2022/03/28 00:56:18;;;;;;;7.57;4.10;;;;;;;6.15;67.18;101330.84;5007597;28;20501;-48
2022/03/28 00:58:46;;;;;;;8.95;5.03;;;;;;;6.10;67.09;101337.53;5005515;28;20510;-49
2022/03/28 01:01:12;;;;;;;6.57;4.10;;;;;;;6.07;67.11;101329.72;5008269;28;20080;-44
2022/03/28 01:03:40;;;;;;;11.90;4.68;;;;;;;6.03;67.79;101325.25;5008455;28;20466;-46
2022/03/28 01:06:07;;;;;;;8.18;4.18;;;;;;;6.01;67.73;101322.63;5004868;28;20058;-46
2022/03/28 01:08:34;;;;;;;8.57;4.40;;;;;;;5.98;67.96;101321.63;5005156;28;20050;-44
2022/03/28 01:11:06;;;;;;;8.32;4.35;;;;;;;5.95;68.45;101326.66;5004632;28;20148;-43
2022/03/28 01:13:34;;;;;;;9.35;4.38;;;;;;;5.94;67.14;101327.50;5002733;28;20141;-41
2022/03/28 01:16:02;;;;;;;7.90;4.20;;;;;;;5.91;67.08;101315.38;5005796;28;20547;-45
2022/03/28 01:18:29;;;;;;;11.63;5.40;;;;;;;5.89;67.97;101311.88;5006194;28;20132;-46
2022/03/28 01:20:58;;;;;;;10.02;4.25;;;;;;;5.87;67.36;101314.38;5005014;28;20112;-45
2022/03/28 01:23:25;;;;;;;58.72;5.75;;;;;;;5.85;67.64;101310.03;5007061;28;20046;-44
2022/03/28 01:25:52;;;;;;;37.75;5.07;;;;;;;5.81;67.70;101314.16;5004920;28;20054;-45
2022/03/28 01:28:21;;;;;;;7.80;3.63;;;;;;;5.80;67.92;101309.84;5007346;28;20052;-43
2022/03/28 01:30:48;;;;;;;34.38;4.65;;;;;;;5.78;67.79;101306.34;5006591;28;20058;-46
2022/03/28 01:33:15;;;;;;;40.45;3.78;;;;;;;5.77;67.41;101304.56;5002825;28;20049;-43
2022/03/28 01:35:44;;;;;;;28.67;3.55;;;;;;;5.76;67.32;101300.25;5006839;28;20049;-46
2022/03/28 01:38:14;;;;;;;16.25;4.07;;;;;;;5.72;67.17;101294.13;5004242;28;20050;-44
2022/03/28 01:40:43;;;;;;;8.50;3.78;;;;;;;5.66;67.75;101287.06;5007663;28;20053;-42
2022/03/28 01:43:11;;;;;;;7.28;3.53;;;;;;;5.63;68.17;101284.38;5006941;28;20042;-47
2022/03/28 01:45:38;;;;;;;8.50;4.68;;;;;;;5.61;67.49;101286.00;5003143;28;20058;-47
2022/03/28 01:48:06;;;;;;;7.05;3.90;;;;;;;5.57;67.61;101289.28;5002225;28;20053;-42
2022/03/28 01:50:33;;;;;;;21.80;4.20;;;;;;;5.53;66.99;101288.31;5002213;28;20065;-46
2022/03/28 01:53:00;;;;;;;18.75;2.92;;;;;;;5.47;67.38;101287.19;5005713;28;20101;-43
2022/03/28 01:55:27;;;;;;;23.15;3.17;;;;;;;5.41;67.82;101280.13;5006629;28;20060;-43
2022/03/28 01:57:54;;;;;;;18.35;3.15;;;;;;;5.36;67.08;101274.81;5006879;28;20046;-43
2022/03/28 02:00:23;;;;;;;12.20;2.60;;;;;;;5.32;67.33;101283.22;5007242;28;20050;-42
2022/03/28 02:02:51;;;;;;;8.52;2.75;;;;;;;5.28;67.63;101278.78;5003326;28;20133;-43
2022/03/28 02:05:18;;;;;;;17.20;3.47;;;;;;;5.26;67.25;101278.72;5006928;28;20077;-45
2022/03/28 02:07:47;;;;;;;41.53;4.00;;;;;;;5.25;67.57;101270.94;5004403;28;20081;-43
2022/03/28 02:10:16;;;;;;;59.80;3.97;;;;;;;5.26;67.75;101277.81;5004779;28;20046;-47
2022/03/28 02:12:43;;;;;;;21.75;2.85;;;;;;;5.21;67.44;101264.81;5002522;28;20108;-42
2022/03/28 02:15:10;;;;;;;14.70;3.60;;;;;;;5.21;67.55;101269.06;5003440;28;20045;-42
2022/03/28 02:17:38;;;;;;;20.00;3.00;;;;;;;5.19;67.29;101263.88;5005698;28;20042;-46
2022/03/28 02:20:07;;;;;;;8.90;2.67;;;;;;;5.12;67.36;101270.47;5005023;28;20058;-43
2022/03/28 02:22:34;;;;;;;11.20;2.45;;;;;;;5.08;67.16;101268.59;5005638;28;20058;-44
2022/03/28 02:25:02;;;;;;;10.82;3.05;;;;;;;5.06;67.72;101259.94;5006870;28;20050;-42
2022/03/28 02:27:29;;;;;;;15.95;3.50;;;;;;;5.03;67.31;101257.25;5006153;28;20046;-41
2022/03/28 02:29:56;;;;;;;30.88;3.75;;;;;;;4.99;67.07;101252.81;5003771;28;20132;-44
2022/03/28 02:32:22;;;;;;;13.90;3.03;;;;;;;4.95;67.50;101253.50;5003701;28;20053;-44
2022/03/28 02:34:49;;;;;;;17.10;3.15;;;;;;;4.93;66.97;101250.00;5002029;28;20109;-45
2022/03/28 02:37:16;;;;;;;11.85;3.05;;;;;;;4.86;67.33;101249.75;5004191;28;20046;-43
2022/03/28 02:39:42;;;;;;;21.20;3.05;;;;;;;4.83;67.51;101241.06;5006681;28;20100;-42
2022/03/28 02:42:09;;;;;;;7.40;2.58;;;;;;;4.79;67.32;101232.34;5001542;28;20049;-44
2022/03/28 02:44:36;;;;;;;5.20;2.90;;;;;;;4.75;67.10;101238.19;5004084;28;20505;-46
2022/03/28 02:47:04;;;;;;;16.00;3.78;;;;;;;4.74;67.31;101226.16;5003011;28;20097;-43
2022/03/28 02:49:30;;;;;;;9.63;2.85;;;;;;;4.72;67.27;101217.50;5004279;28;20054;-43
2022/03/28 02:51:57;;;;;;;12.02;3.05;;;;;;;4.71;67.55;101220.91;5007414;28;20053;-45
2022/03/28 02:54:23;;;;;;;13.90;2.95;;;;;;;4.68;67.30;101213.97;5003584;28;20041;-44
2022/03/28 02:56:50;;;;;;;7.65;2.78;;;;;;;4.65;67.47;101207.81;5005529;28;20076;-43
2022/03/28 02:59:17;;;;;;;3.75;2.70;;;;;;;4.63;67.64;101213.78;5006113;28;20108;-44
2022/03/28 03:01:45;;;;;;;4.45;3.10;;;;;;;4.63;67.44;101207.78;5003406;28;20042;-44
2022/03/28 03:04:12;;;;;;;8.10;2.83;;;;;;;4.61;67.43;101210.28;5005214;28;20045;-42
2022/03/28 03:06:38;;;;;;;10.20;3.05;;;;;;;4.56;67.36;101211.75;5005753;28;20088;-45
2022/03/28 03:09:05;;;;;;;19.70;3.28;;;;;;;4.53;67.26;101203.06;5003617;28;20076;-44
2022/03/28 03:11:31;;;;;;;7.25;2.95;;;;;;;4.49;67.93;101205.50;5002150;28;20053;-45
2022/03/28 03:13:58;;;;;;;6.53;1.83;;;;;;;4.46;67.48;101200.25;5000936;28;20787;-47
2022/03/28 03:16:24;;;;;;;4.28;2.75;;;;;;;4.44;66.92;101198.44;5004945;28;20042;-43
2022/03/28 03:18:51;;;;;;;9.55;2.75;;;;;;;4.37;67.20;101200.78;5004343;28;20046;-41
2022/03/28 03:21:18;;;;;;;6.53;2.80;;;;;;;4.31;67.06;101194.50;4999953;28;20140;-45
2022/03/28 03:23:44;;;;;;;6.95;3.55;;;;;;;4.23;66.98;101196.75;5002818;28;20062;-43
2022/03/28 03:26:11;;;;;;;9.75;2.22;;;;;;;4.18;66.96;101183.72;5005998;28;20571;-44
2022/03/28 03:28:37;;;;;;;9.52;3.05;;;;;;;4.15;67.43;101185.28;5005761;28;20371;-43
2022/03/28 03:31:04;;;;;;;7.78;2.97;;;;;;;4.12;66.82;101188.59;5003650;28;20046;-43
2022/03/28 03:33:31;;;;;;;4.55;3.13;;;;;;;4.09;67.50;101179.06;5005209;28;20406;-46
2022/03/28 03:36:00;;;;;;;4.85;3.28;;;;;;;4.08;67.52;101182.47;5004684;28;20058;-46
2022/03/28 03:38:27;;;;;;;6.75;3.25;;;;;;;4.06;67.46;101184.06;5005021;28;20069;-44
2022/03/28 03:40:54;;;;;;;7.80;3.28;;;;;;;4.04;67.20;101179.69;5002661;28;20517;-43
2022/03/28 03:43:21;;;;;;;6.13;3.10;;;;;;;4.02;67.02;101174.50;4999999;28;20054;-44
2022/03/28 03:45:48;;;;;;;31.75;3.70;;;;;;;3.99;66.79;101169.25;5003442;28;20753;-45
2022/03/28 03:48:15;;;;;;;7.57;3.25;;;;;;;3.97;67.16;101168.31;5005154;28;20041;-44
2022/03/28 03:50:42;;;;;;;4.55;3.20;;;;;;;3.94;67.46;101165.59;5006918;28;20062;-43
2022/03/28 03:53:09;;;;;;;6.10;4.35;;;;;;;3.91;67.58;101170.59;5006893;28;20548;-44
2022/03/28 03:55:36;;;;;;;7.88;3.47;;;;;;;3.85;67.53;101164.41;5009322;28;20046;-46
2022/03/28 03:58:03;;;;;;;6.72;3.50;;;;;;;3.80;66.75;101163.34;5011971;28;20081;-42
2022/03/28 04:00:30;;;;;;;11.15;3.30;;;;;;;3.75;67.69;101166.53;5008538;28;20104;-42
2022/03/28 04:02:56;;;;;;;10.45;3.03;;;;;;;3.69;67.01;101156.88;5007332;28;20575;-43
2022/03/28 04:05:23;;;;;;;19.92;3.47;;;;;;;3.65;67.91;101152.44;5008912;28;20038;-44
2022/03/28 04:07:50;;;;;;;7.70;3.08;;;;;;;3.61;67.05;101156.53;5004163;28;20413;-43
2022/03/28 04:10:17;;;;;;;8.55;2.97;;;;;;;3.58;67.43;101149.59;5007819;28;20107;-42
2022/03/28 04:12:43;;;;;;;4.70;3.15;;;;;;;3.55;66.78;101149.44;5007234;28;20049;-44
2022/03/28 04:15:10;;;;;;;6.82;3.45;;;;;;;3.52;67.59;101149.34;5009201;28;20042;-44
2022/03/28 04:17:43;;;;;;;5.80;3.28;;;;;;;3.50;67.48;101150.94;5008798;28;20045;-42
2022/03/28 04:20:13;;;;;;;8.40;3.45;;;;;;;3.48;66.98;101144.91;5003526;28;20497;-40
2022/03/28 04:22:40;;;;;;;5.65;3.22;;;;;;;3.46;67.89;101149.94;5005399;28;20057;-42
2022/03/28 04:25:09;;;;;;;5.43;3.30;;;;;;;3.45;67.18;101147.31;5006671;28;20038;-43
2022/03/28 04:27:37;;;;;;;5.20;2.88;;;;;;;3.43;67.75;101143.78;5008474;28;20065;-44
2022/03/28 04:30:23;;;;;;;4.75;3.25;;;;;;;3.40;67.33;101148.78;5006192;28;20096;-42
2022/03/28 04:32:50;;;;;;;3.83;3.25;;;;;;;3.40;67.60;101148.78;5009485;28;20042;-43
2022/03/28 04:35:17;;;;;;;7.15;2.70;;;;;;;3.37;67.96;101140.97;5008393;28;20046;-43
2022/03/28 04:37:44;;;;;;;4.53;2.83;;;;;;;3.36;67.20;101146.88;5005091;28;20053;-41
2022/03/28 04:40:14;;;;;;;3.72;2.80;;;;;;;3.36;67.88;101146.88;5007314;28;20559;-43
2022/03/28 04:42:40;;;;;;;5.15;3.40;;;;;;;3.33;67.82;101143.41;5008941;28;20046;-44
2022/03/28 04:45:08;;;;;;;18.55;3.30;;;;;;;3.31;67.31;101142.44;5006832;28;20069;-40
2022/03/28 04:47:35;;;;;;;14.85;2.92;;;;;;;3.29;67.26;101141.50;5005026;28;20050;-44
2022/03/28 04:50:05;;;;;;;6.07;3.97;;;;;;;3.27;67.77;101143.13;5005762;28;20054;-43
2022/03/28 04:52:32;;;;;;;4.70;1.70;;;;;;;3.26;67.32;101141.38;5003783;28;20566;-40
2022/03/28 04:54:58;;;;;;;6.95;3.53;;;;;;;3.24;68.01;101142.97;5004825;28;20096;-42
2022/03/28 04:57:25;;;;;;;5.30;3.13;;;;;;;3.21;68.22;101142.84;5005576;28;20073;-41
2022/03/28 04:59:52;;;;;;;5.05;3.53;;;;;;;3.20;67.73;101130.84;5007595;28;20054;-45
2022/03/28 05:02:19;;;;;;;5.50;3.35;;;;;;;3.18;67.16;101132.47;5006900;28;20100;-42
2022/03/28 05:04:46;;;;;;;9.05;3.40;;;;;;;3.16;67.84;101126.38;5007654;28;20038;-44
2022/03/28 05:07:13;;;;;;;12.63;3.65;;;;;;;3.15;67.87;101122.97;5007008;28;20046;-42
2022/03/28 05:09:39;;;;;;;18.48;3.72;;;;;;;3.15;67.93;101116.97;5003611;28;20101;-39
2022/03/28 05:12:06;;;;;;;17.75;3.97;;;;;;;3.15;67.53;101111.84;5005516;28;20382;-42
2022/03/28 05:14:34;;;;;;;13.73;2.83;;;;;;;3.15;67.75;101116.97;5005599;28;20046;-41
2022/03/28 05:17:00;;;;;;;56.63;4.68;;;;;;;3.13;68.57;101108.31;5006161;28;20061;-42
2022/03/28 05:19:27;;;;;;;17.58;4.70;;;;;;;3.10;68.31;101103.09;5006417;28;20104;-41
2022/03/28 05:21:54;;;;;;;13.27;3.42;;;;;;;3.05;68.33;101098.66;5007846;28;20050;-43
2022/03/28 05:24:21;;;;;;;15.45;4.63;;;;;;;3.02;67.45;101090.81;5005139;28;20101;-40
2022/03/28 05:26:48;;;;;;;9.15;4.07;;;;;;;3.01;67.84;101099.28;5004355;28;20049;-44
2022/03/28 05:29:15;;;;;;;7.70;3.95;;;;;;;2.98;67.42;101096.59;5006746;28;20058;-42
2022/03/28 05:31:42;;;;;;;10.50;3.83;;;;;;;2.96;68.50;101095.66;5006085;28;20054;-40
2022/03/28 05:34:10;;;;;;;6.15;3.88;;;;;;;2.95;68.14;101091.34;5004967;28;20053;-42
2022/03/28 05:36:37;;;;;;;8.60;3.72;;;;;;;2.95;68.18;101088.78;5005209;28;20057;-43
2022/03/28 05:39:04;;;;;;;4.50;3.30;;;;;;;2.95;67.53;101091.34;5005257;28;20050;-40
2022/03/28 05:41:31;;;;;;;9.23;3.88;;;;;;;2.94;68.07;101087.91;5004866;28;20057;-42
2022/03/28 05:43:58;;;;;;;10.70;4.40;;;;;;;2.94;68.05;101079.38;5007282;28;20050;-41
2022/03/28 05:46:25;;;;;;;13.30;5.70;;;;;;;2.94;68.24;101081.94;5006842;28;20038;-41
2022/03/28 05:48:52;;;;;;;10.55;3.35;;;;;;;2.94;67.35;101081.94;5002250;28;20046;-42
2022/03/28 05:51:19;;;;;;;9.27;3.63;;;;;;;2.92;67.46;101081.84;5006443;28;20049;-43
2022/03/28 05:53:46;;;;;;;15.77;4.13;;;;;;;2.93;68.41;101082.72;5003988;28;20112;-44
2022/03/28 05:56:12;;;;;;;34.80;3.92;;;;;;;2.86;68.55;101078.13;5006133;28;20049;-41
2022/03/28 05:58:39;;;;;;;13.65;3.60;;;;;;;2.77;67.13;101079.44;5003354;28;20042;-46
2022/03/28 06:01:06;;;;;;;9.15;3.78;;;;;;;2.74;68.12;101074.22;5005595;28;20124;-42
2022/03/28 06:03:33;;;;;;;11.02;3.47;;;;;;;2.71;68.65;101068.94;5004442;28;20054;-45
2022/03/28 06:06:03;;;;;;;14.90;3.80;;;;;;;2.70;67.48;101067.19;5001819;28;20549;-43
2022/03/28 06:08:32;;;;;;;6.85;2.88;;;;;;;2.68;67.14;101066.25;5001201;28;20073;-44
2022/03/28 06:10:58;;;;;;;9.13;3.90;;;;;;;2.67;67.08;101067.06;5002794;28;20089;-44
2022/03/28 06:13:25;;;;;;;10.25;3.75;;;;;;;2.68;68.53;101064.56;5006375;28;20120;-42
2022/03/28 06:15:52;;;;;;;8.95;4.05;;;;;;;2.66;67.32;101063.63;5005305;28;20045;-46
2022/03/28 06:18:19;;;;;;;7.72;2.75;;;;;;;2.68;68.33;101067.13;5003003;28;20133;-46
2022/03/28 06:20:45;;;;;;;9.27;4.00;;;;;;;2.72;68.42;101065.59;5003834;28;20049;-45
2022/03/28 06:23:12;;;;;;;13.60;4.32;;;;;;;2.75;67.63;101055.50;5006313;28;20084;-43
2022/03/28 06:25:40;;;;;;;19.98;3.88;;;;;;;2.83;67.38;101059.28;5006669;28;20548;-44
2022/03/28 06:28:07;;;;;;;12.48;4.03;;;;;;;2.90;67.44;101069.81;5003937;28;20462;-42
2022/03/28 06:30:34;;;;;;;16.15;4.10;;;;;;;2.94;67.84;101061.44;5002956;28;20721;-43
2022/03/28 06:33:01;;;;;;;14.75;3.88;;;;;;;3.00;67.63;101064.25;5005899;28;20050;-40
2022/03/28 06:35:27;;;;;;;7.03;3.38;;;;;;;3.05;67.47;101062.81;5003099;28;20049;-43
2022/03/28 06:37:54;;;;;;;8.98;3.42;;;;;;;3.12;68.59;101070.75;5003047;28;20054;-42
2022/03/28 06:40:21;;;;;;;9.57;3.67;;;;;;;3.15;67.74;101069.22;4996264;28;20050;-43
2022/03/28 06:42:48;;;;;;;8.25;2.33;;;;;;;3.21;67.14;101061.78;4998095;28;20601;-45
2022/03/28 06:45:15;;;;;;;12.70;3.42;;;;;;;3.27;68.23;101063.72;4998173;28;20387;-45
2022/03/28 06:47:59;;;;;;;6.65;4.47;;;;;;;3.26;67.75;101059.44;4998567;28;20048;-45
2022/03/28 06:50:46;;;;;;;6.05;3.42;;;;;;;3.24;66.93;101061.03;4995866;28;20092;-44
2022/03/28 06:53:13;;;;;;;5.32;3.75;;;;;;;3.28;67.38;101057.78;4992749;28;20054;-48
2022/03/28 06:55:40;;;;;;;10.65;3.97;;;;;;;3.38;67.24;101063.34;4999564;28;20127;-43
2022/03/28 06:58:06;;;;;;;9.30;3.45;;;;;;;3.45;67.81;101066.22;4999387;28;20478;-47
2022/03/28 07:00:34;;;;;;;11.73;4.25;;;;;;;3.55;66.96;101057.22;4996833;28;20120;-45
2022/03/28 07:03:01;;;;;;;13.02;4.03;;;;;;;3.65;67.44;101057.63;4996783;28;20658;-45
2022/03/28 07:05:28;;;;;;;5.65;3.30;;;;;;;3.73;66.69;101062.28;4999813;28;20053;-43
2022/03/28 07:07:56;;;;;;;6.60;3.92;;;;;;;3.81;67.32;101054.88;4996364;28;20132;-45
2022/03/28 07:10:22;;;;;;;6.15;3.75;;;;;;;3.89;67.22;101046.66;4999234;28;20414;-41
2022/03/28 07:12:53;;;;;;;5.60;5.00;;;;;;;3.94;67.22;101040.88;5001330;28;20054;-42
2022/03/28 07:15:20;;;;;;;5.10;3.80;;;;;;;4.02;66.57;101048.03;4999335;28;20038;-44
2022/03/28 07:17:51;;;;;;;5.25;3.72;;;;;;;4.22;67.53;101048.81;4995356;28;20058;-45
2022/03/28 07:20:21;;;;;;;5.85;4.20;;;;;;;4.76;67.54;101049.97;4997405;28;20038;-46
2022/03/28 07:22:48;;;;;;;5.85;2.30;;;;;;;5.56;67.23;101051.09;4998039;28;20646;-45
2022/03/28 07:25:14;;;;;;;4.68;3.65;;;;;;;6.36;66.21;101051.97;4998766;28;20053;-44
2022/03/28 07:27:41;;;;;;;4.55;3.22;;;;;;;7.04;65.95;101047.94;4996799;28;20045;-45
2022/03/28 07:30:09;;;;;;;5.88;4.45;;;;;;;7.76;63.76;101048.91;4996728;28;20049;-46
2022/03/28 07:32:37;;;;;;;5.70;4.18;;;;;;;8.44;63.90;101045.34;4992640;28;20705;-44
2022/03/28 07:35:05;;;;;;;7.30;3.60;;;;;;;9.13;62.53;101046.78;4980214;28;20474;-46
2022/03/28 07:37:32;;;;;;;6.50;3.72;;;;;;;9.81;61.80;101051.41;4993576;28;20045;-48
2022/03/28 07:39:59;;;;;;;3.60;2.95;;;;;;;10.45;59.80;101047.22;5001470;28;20073;-50
2022/03/28 07:42:43;;;;;;;7.45;3.30;;;;;;;11.09;58.64;101048.00;4995016;28;20097;-47
2022/03/28 07:45:11;;;;;;;3.88;2.85;;;;;;;11.56;57.17;101049.38;4998683;28;20054;-48
2022/03/28 07:47:38;;;;;;;3.33;1.92;;;;;;;11.98;56.06;101047.09;4998383;28;20457;-52
2022/03/28 07:50:05;;;;;;;4.60;3.83;;;;;;;12.43;55.28;101038.78;4992605;28;20058;-48
2022/03/28 07:52:32;;;;;;;2.92;1.60;;;;;;;12.81;54.29;101045.91;4998725;28;20590;-47
2022/03/28 07:55:00;;;;;;;4.25;3.30;;;;;;;13.17;53.78;101037.34;5000263;28;20081;-50
2022/03/28 07:57:27;;;;;;;6.10;3.72;;;;;;;13.59;54.13;101035.69;5003326;28;20050;-49
2022/03/28 07:59:54;;;;;;;5.60;3.85;;;;;;;14.08;53.22;101044.34;4996755;28;20053;-44
2022/03/28 08:02:41;;;;;;;7.40;3.55;;;;;;;14.58;51.45;101039.03;4995548;28;21782;-44
2022/03/28 08:05:09;;;;;;;7.95;3.72;;;;;;;14.98;51.14;101037.13;4997497;28;20057;-45
2022/03/28 08:07:36;;;;;;;6.65;3.95;;;;;;;15.33;50.87;101043.88;4995959;28;20053;-46
2022/03/28 08:10:05;;;;;;;4.35;3.33;;;;;;;15.66;48.84;101041.91;4998126;28;20054;-48
2022/03/28 08:12:33;;;;;;;3.90;3.25;;;;;;;15.77;49.05;101038.38;4999703;28;20050;-47
2022/03/28 08:15:00;;;;;;;8.02;4.53;;;;;;;15.71;48.63;101038.41;5003398;28;20045;-45
2022/03/28 08:17:26;;;;;;;6.32;4.97;;;;;;;15.52;49.36;101043.75;4995091;28;20108;-48
2022/03/28 08:19:53;;;;;;;6.15;4.15;;;;;;;15.44;49.01;101040.34;4998949;28;20137;-48
2022/03/28 08:22:19;;;;;;;5.60;4.25;;;;;;;15.54;49.13;101035.03;4998138;28;20096;-49
2022/03/28 08:24:46;;;;;;;6.47;5.15;;;;;;;15.51;48.55;101026.38;5001664;28;20084;-45
2022/03/28 08:27:13;;;;;;;7.30;5.03;;;;;;;15.34;49.23;101029.97;5003657;28;20050;-48
2022/03/28 08:29:39;;;;;;;6.63;4.68;;;;;;;15.25;49.72;101028.28;5002490;28;20049;-48
2022/03/28 08:32:06;;;;;;;10.50;5.00;;;;;;;15.46;49.54;101026.41;5005984;28;20100;-45
2022/03/28 08:34:36;;;;;;;;;;;;;;;15.85;49.20;101026.09;5002940;28;20046;-47
2022/03/28 08:37:03;;;;;;;9.43;5.57;;;;;;;16.34;47.96;101023.88;5005702;28;19936;-48
2022/03/28 08:39:30;;;;;;;8.88;5.53;;;;;;;16.74;47.42;101021.66;5004880;28;20121;-47
2022/03/28 08:41:57;;;;;;;8.88;5.35;;;;;;;17.08;46.89;101011.66;5007376;28;20061;-46
2022/03/28 08:44:26;;;;;;;7.40;5.40;;;;;;;17.47;46.39;101012.81;5003601;28;20053;-47
2022/03/28 08:46:55;;;;;;;7.78;5.32;;;;;;;17.83;45.44;101009.59;5002104;28;20053;-48
2022/03/28 08:49:22;;;;;;;8.27;5.65;;;;;;;18.11;45.22;101004.75;5003691;28;20069;-47
2022/03/28 08:51:51;;;;;;;7.72;5.10;;;;;;;18.45;45.00;101003.22;5003969;28;20081;-48
2022/03/28 08:54:19;;;;;;;8.88;6.03;;;;;;;18.75;44.73;100998.22;5001274;28;20098;-50
2022/03/28 08:56:46;;;;;;;8.07;6.28;;;;;;;19.02;44.30;101001.13;5002753;28;20045;-46
2022/03/28 08:59:13;;;;;;;8.10;5.93;;;;;;;19.36;43.99;101006.53;5004985;28;20473;-47
2022/03/28 09:01:41;;;;;;;8.30;5.90;;;;;;;19.69;43.41;101005.72;5005112;28;20046;-50
2022/03/28 09:04:09;;;;;;;13.82;8.93;;;;;;;19.97;42.60;100997.09;5001412;28;20078;-46
2022/03/28 09:06:38;;;;;;;12.07;7.65;;;;;;;20.29;41.57;100987.47;5003044;28;20092;-46
2022/03/28 09:09:27;;;;;;;13.02;7.47;;;;;;;20.53;41.04;100991.16;5003665;28;20402;-45
2022/03/28 09:11:58;;;;;;;11.73;7.47;;;;;;;20.86;40.60;100986.69;5004404;28;20081;-45
2022/03/28 09:14:29;;;;;;;9.60;7.05;;;;;;;21.12;40.47;100990.31;5003273;28;20045;-46
2022/03/28 09:16:59;;;;;;;12.13;8.15;;;;;;;21.42;39.43;100987.59;5006284;28;20053;-50
2022/03/28 09:19:26;;;;;;;14.05;8.25;;;;;;;21.55;39.92;100996.81;5005010;28;20054;-46
2022/03/28 09:21:52;;;;;;;12.07;8.23;;;;;;;21.75;39.46;100992.66;5003147;28;20057;-47
2022/03/28 09:24:31;;;;;;;11.73;7.72;;;;;;;21.91;38.76;101003.53;5006050;28;20054;-47
2022/03/28 09:27:19;;;;;;;11.13;8.15;;;;;;;22.04;38.01;101000.44;5004911;28;20050;-47
2022/03/28 09:29:55;;;;;;;13.52;8.85;;;;;;;22.19;36.25;100993.78;5005868;28;20042;-45
2022/03/28 09:32:24;;;;;;;14.10;8.38;;;;;;;22.33;37.29;100991.47;5006636;28;20092;-50
2022/03/28 09:35:03;;;;;;;13.27;8.05;;;;;;;22.51;36.79;100996.13;5001300;28;20099;-46
2022/03/28 09:37:30;;;;;;;13.27;8.48;;;;;;;22.71;36.63;100988.34;5003184;28;22671;-48
2022/03/28 09:39:58;;;;;;;13.90;8.20;;;;;;;22.76;36.26;100996.06;5003392;28;20057;-47
2022/03/28 09:42:24;;;;;;;11.77;7.63;;;;;;;22.96;36.70;100987.34;5000732;28;20046;-46
2022/03/28 09:44:53;;;;;;;13.38;8.02;;;;;;;23.07;36.51;100981.63;4983326;28;20160;-47
2022/03/28 09:47:22;;;;;;;12.23;8.48;;;;;;;23.21;36.28;100980.22;4981824;28;20074;-45
2022/03/28 09:49:53;;;;;;;14.48;9.00;;;;;;;23.40;35.24;100979.50;5011936;28;20054;-47
2022/03/28 09:52:21;;;;;;;14.10;8.65;;;;;;;23.51;35.65;100977.25;4975702;28;20050;-48
2022/03/28 09:57:28;;;;;;;12.77;6.43;;;;;;;23.33;34.52;100974.44;5020330;28;20417;-46
2022/03/28 10:02:44;;;;;;;11.77;5.60;;;;;;;23.18;34.81;100959.22;5006118;28;20422;-47
2022/03/28 10:05:12;;;;;;;11.95;6.40;;;;;;;23.24;34.56;100962.44;4995757;28;20912;-47
2022/03/28 10:07:39;;;;;;;11.90;6.43;;;;;;;23.41;35.01;100945.06;4995484;28;20080;-46
2022/03/28 10:10:07;;;;;;;13.13;6.28;;;;;;;23.55;34.46;100954.19;5001076;28;20053;-47
2022/03/28 10:12:37;;;;;;;10.95;6.38;;;;;;;23.64;34.58;100939.72;5003644;28;20043;-49
2022/03/28 10:15:05;;;;;;;14.38;6.22;;;;;;;23.73;34.26;100936.66;5016890;28;20043;-49
2022/03/28 10:17:32;;;;;;;14.10;6.35;;;;;;;23.56;33.66;100937.38;4983917;28;20049;-49
2022/03/28 10:20:00;;;;;;;15.13;7.25;;;;;;;23.60;34.42;100939.84;4980069;28;20054;-46
2022/03/28 10:22:51;;;;;;;14.43;7.05;;;;;;;23.78;33.69;100939.97;4995351;28;20137;-47
2022/03/28 10:25:21;;;;;;;11.90;6.38;;;;;;;23.81;33.72;100925.75;4982900;28;20101;-47
2022/03/28 10:27:50;;;;;;;14.77;7.03;;;;;;;23.86;33.64;100918.47;4981928;28;20149;-48
2022/03/28 10:33:16;;;;;;;12.40;7.18;;;;;;;23.83;34.04;100915.94;5009609;28;20415;-48
2022/03/28 10:36:02;;;;;;;13.68;7.00;;;;;;;23.74;34.05;100914.56;5000857;28;20054;-46
2022/03/28 10:38:29;;;;;;;12.40;6.85;;;;;;;23.56;33.92;100917.09;4994190;28;20053;-45
2022/03/28 10:40:58;;;;;;;11.93;6.43;;;;;;;23.59;33.87;100911.69;4996533;28;20113;-45
2022/03/28 10:43:32;;;;;;;10.88;5.88;;;;;;;23.51;33.49;100912.94;4998613;28;20053;-49
2022/03/28 10:46:02;;;;;;;11.75;5.88;;;;;;;23.48;33.38;100903.38;4981273;28;20042;-46
2022/03/28 10:48:54;;;;;;;10.90;5.70;;;;;;;23.55;33.84;100899.53;5026340;28;20096;-45
2022/03/28 10:51:26;;;;;;;10.32;5.65;;;;;;;23.33;33.84;100900.41;4997089;28;20061;-48
2022/03/28 10:53:58;;;;;;;15.77;5.95;;;;;;;23.15;33.59;100898.56;5000346;28;20064;-46
2022/03/28 10:59:19;;;;;;;9.40;5.32;;;;;;;22.93;33.22;100891.56;5026412;28;20410;-47
2022/03/28 11:02:03;;;;;;;9.30;4.97;;;;;;;22.83;34.12;100899.84;4981676;28;20184;-47
2022/03/28 11:04:30;;;;;;;11.73;6.25;;;;;;;22.81;34.85;100893.78;4989033;28;20076;-46
2022/03/28 11:12:37;;;;;;;11.10;6.20;;;;;;;22.58;34.62;100887.63;5020597;27;20417;-46
2022/03/28 11:15:23;;;;;;;10.73;4.85;;;;;;;22.31;33.93;100881.63;5016862;28;20057;-49
2022/03/28 11:17:55;;;;;;;7.63;4.50;;;;;;;21.97;34.92;100883.78;5001231;28;20120;-45
2022/03/28 11:20:23;;;;;;;7.68;4.05;;;;;;;21.92;35.31;100883.09;4994413;28;20053;-45
2022/03/28 11:33:24;;;;;;;11.88;6.15;;;;;;;21.57;35.20;100868.47;5001485;27;20420;-48
2022/03/28 11:35:55;;;;;;;11.10;5.45;;;;;;;21.40;34.71;100860.28;4996860;28;20505;-47
2022/03/28 11:38:25;;;;;;;11.27;5.95;;;;;;;21.25;35.58;100867.84;4999169;28;20045;-51
2022/03/28 11:40:53;;;;;;;12.05;5.50;;;;;;;20.98;36.34;100859.09;5012855;28;20057;-51
2022/03/28 11:43:31;;;;;;;9.98;5.85;;;;;;;20.64;36.33;100861.03;4993989;28;20046;-48
2022/03/28 11:45:59;;;;;;;14.55;5.82;;;;;;;20.66;36.90;100848.69;4996508;28;20843;-45
2022/03/28 11:48:26;;;;;;;12.40;5.95;;;;;;;20.62;37.09;100852.31;4995371;28;20138;-47
2022/03/28 11:50:55;;;;;;;12.63;6.00;;;;;;;20.31;37.00;100843.63;4997696;28;20054;-48
2022/03/28 11:53:23;;;;;;;10.82;6.47;;;;;;;20.10;37.48;100834.63;4996071;28;20065;-46
2022/03/28 11:55:54;;;;;;;11.32;6.40;;;;;;;19.82;37.69;100838.03;4997448;28;20042;-47
2022/03/28 11:58:30;;;;;;;13.13;5.95;;;;;;;19.68;37.96;100828.78;4996148;28;20587;-47
2022/03/28 12:01:13;;;;;;;11.13;5.47;;;;;;;19.58;38.59;100827.31;4999164;28;20046;-48